Wilmington, OH

7:27 AM EDT on August 31, 2014 (GMT -0400)
Country Manor | Change Station
CLOSE
Current Station
Personal Weather Station
Location: Wilmington, OH
Elevation: 1004 ft
Nearby Weather Stations

Elev 1004 ft 39.44 °N, 83.90 °W | Updated 3 seconds ago

Heavy Rain
Heavy Rain Mist
70.7 °F
Feels Like 70.7 °F
N
4.0
Wind Variable Wind from SSW
Gusts 5.0 mph

Today
High -- | Low -- °F
--% Chance of Precip.
Yesterday
High -- | Low -- °F
Precip. -- in
7:02 AM 8:07 PM
Waxing Crescent, 30% visible
Pressure 30.05 in
Visibility 1.2 miles
Clouds Scattered Clouds 400 ft
Mostly Cloudy 800 ft
Overcast 1700 ft
Dew Point 69 °F
Humidity 93%
Rainfall 0.20 in
Snow Depth Not available.
UV 0 out of 12
Pollen 2.30 out of 12
Ozone Good
PM2.5 Moderate
Flu Activity Not available.
SPECI KILN 311116Z AUTO 19005KT 1 1/4SM +RA BR SCT004 BKN008 OVC017 21/21 A3005 RMK AO2 P0010 T02110206

More Conditions Fewer Conditions

Pressure 30.05 in
Visibility 1.2 miles
Clouds Scattered Clouds 400 ft
Mostly Cloudy 800 ft
Overcast 1700 ft
Dew Point 69 °F
Humidity 93%
Rainfall 0.20 in
Snow Depth Not available.
UV 0 out of 12
Pollen 2.30 out of 12
Ozone Good
PM2.5 Moderate
Flu Activity Not available.
SPECI KILN 311116Z AUTO 19005KT 1 1/4SM +RA BR SCT004 BKN008 OVC017 21/21 A3005 RMK AO2 P0010 T02110206

More Conditions Fewer Conditions

10-Day Weather Forecast

Almanac

Astronomy

Aug. 31, 2014 Rise Set
Actual Time 7:02 AM EDT 8:07 PM EDT
Civil Twilight 6:35 AM EDT 8:35 PM EDT
Nautical Twilight 6:02 AM EDT 9:08 PM EDT
Astronomical Twilight 5:27 AM EDT 9:42 PM EDT
Moon 12:46 PM EDT 11:23 PM EDT
Length of Visible Light 14h 00m
Length of Day
13h 04m
Tomorrow will be 2m 28s shorter.
Waxing Crescent, 30% of the Moon is Illuminated
Today
Waxing Crescent
Sep 2
First Quarter
Sep 8
Full
Sep 15
Last Quarter
Sep 24
New

Today's Extremes

State Highs State Lows

Community

WunderPhotos

Upload Photos

1,748,840 photos uploaded!

Nearby

Air Quality

  Air Quality AQ Index Pollutant
Yesterday Moderate
PM2.5
Yesterday Moderate
OZONE
Current Moderate
PM2.5
Current Good
OZONE
Sunday Good
PM2.5
Sunday Good
OZONE
Monday Moderate
PM2.5
Monday Good
OZONE
Tuesday Moderate
PM2.5
Tuesday Good
OZONE

Snow Depth

Station Depth Elevation
No new snow has been reported.

Earthquake Activity

City Distance Mag. Time & Date
No recent earthquake activity has been reported nearby.
Minimum magnitude displayed is 2.5.

Coastal Water Temperatures

Place Temperature
No Stations Reporting

Nearby Weather Stations